Waterville, Minnesota
Current Conditions -  °F | °C
As of 2:14 AM on Thursday 27 Nov 2014 (Local Time) from KACQ Reporting Station
Clear Clear  
Wind Chill: -14°   Ceiling: Unl
Heat Index:   Visibility: 10mi
Dew Point: -8°   Wind: 10mph
Humidity: 66%   Direction: 280°W
Pressure: 30.44"   Gusts: NA
Location:  44.22°N, 93.57°W
Report Text: KACQ 270814Z AUTO 28009KT 10SM CLR M17/M22 A3044 RMK AO2
Loading
Personal Weather Stations






























Interactive Weather Map New forecast layout! Learn more

10-Day Weather Forecast

Advertisements
Track Severe Weather on mobile